首页
METAR-TAF:

METAR-TAF

机场 :

汉诺威-朗根哈根机场

汉诺威, 德国

纬度: 52-28N, 经度: 009-41E, 海拔: 56米

当前天气观测

该预报发布于32分钟前的02:50 UTC
风速6节,风向西南
温度 12°C
湿度 94%
气压 1010 hPa
能见度10公里或以上
少量云层高于2000英尺

METAR: EDDV 240250Z 23006KT 9999 FEW020 12/11 Q1010

时间: 05:22 (03:22 UTC)

预报

该预报发布于4小时和22分钟前的23:00 UTC
预报有效从24日的 00点(UTC)到 24日的 24点(UTC)
风速7节,风向西南
能见度10公里或以上
散云层高于800英尺
多云层高于2000英尺
几率 30% :
短暂存在
从 24日的 03点(UTC)到 24日的 08点(UTC)
多云层高于900英尺
几率 30% :
短暂存在
从 24日的 11点(UTC)到 24日的 16点(UTC)
风速15节,风向南转西南,有时为25节阵风

TAF: EDDV 232300Z 2400/2424 22007KT 9999 SCT008 BKN020 PROB30 TEMPO 2403/2408 BKN009 PROB30 TEMPO 2411/2416 21015G25KT

超过4000个机场的气象观测和天气预报(METAR&TAF报告)。

可查询的气象台以黄色和红色小点在地图上表示。

将鼠标移到小点上方,可查看气象台名称。

然后点击查看天气观测和预报。

如需切换地图:点击带黑十字的绿色按钮放大地图;点击带横线的绿色按钮缩小地图;或者点击绿色箭头查看邻近地区的地图。


METAR-TAF: